createdAt,value
2022-08-26T00:02:29.488Z,101501.09
2022-08-26T00:07:31.154Z,101498.44
2022-08-26T00:12:37.336Z,101503.16
2022-08-26T00:17:40.328Z,101495.44
2022-08-26T00:22:42.097Z,101499.16
2022-08-26T00:27:45.570Z,101495.22
2022-08-26T00:32:47.245Z,101488.19
2022-08-26T00:37:51.167Z,101485.63
2022-08-26T00:42:53.055Z,101482.44
2022-08-26T00:48:01.211Z,101476.94
2022-08-26T00:53:21.479Z,101477.56
2022-08-26T00:58:29.505Z,101471.81
2022-08-26T01:03:34.206Z,101478.19
2022-08-26T01:08:36.134Z,101479.56
2022-08-26T01:13:38.831Z,101481.53
2022-08-26T01:18:43.329Z,101479.88
2022-08-26T01:23:50.702Z,101487.94
2022-08-26T01:28:55.877Z,101484.50
2022-08-26T01:34:15.377Z,101485.44
2022-08-26T01:39:17.712Z,101482.91
2022-08-26T01:44:23.494Z,101478.50
2022-08-26T01:49:26.703Z,101475.25
2022-08-26T01:54:28.426Z,101474.25
2022-08-26T01:59:30.390Z,101472.63
2022-08-26T02:04:41.347Z,101473.56
2022-08-26T02:09:44.197Z,101467.66
2022-08-26T02:14:53.218Z,101467.41
2022-08-26T02:19:56.132Z,101463.13
2022-08-26T02:25:02.367Z,101464.44
2022-08-26T02:30:07.206Z,101463.75
2022-08-26T02:35:11.890Z,101465.84
2022-08-26T02:40:17.012Z,101459.19
2022-08-26T02:45:23.273Z,101466.53
2022-08-26T02:50:25.735Z,101464.22
2022-08-26T02:55:27.324Z,101458.28
2022-08-26T03:00:29.479Z,101456.69
2022-08-26T03:05:31.376Z,101455.22
2022-08-26T03:10:32.934Z,101452.13
2022-08-26T03:15:34.746Z,101450.31
2022-08-26T03:20:36.418Z,101447.03
2022-08-26T03:25:38.698Z,101439.19
2022-08-26T03:30:45.444Z,101440.19
2022-08-26T03:35:50.803Z,101442.09
2022-08-26T03:40:52.530Z,101437.88
2022-08-26T03:45:54.101Z,101432.00
2022-08-26T03:50:56.370Z,101437.44
2022-08-26T03:55:59.250Z,101430.50
2022-08-26T04:01:00.930Z,101431.34
2022-08-26T04:06:03.850Z,101433.31
2022-08-26T04:11:06.413Z,101419.56
2022-08-26T04:16:08.289Z,101419.31
2022-08-26T04:21:12.210Z,101413.88
2022-08-26T04:26:19.839Z,101415.81
2022-08-26T04:31:22.656Z,101420.25
2022-08-26T04:36:25.290Z,101417.50
2022-08-26T04:41:27.353Z,101419.06
2022-08-26T04:46:33.387Z,101415.91
2022-08-26T04:51:36.420Z,101412.72
2022-08-26T04:56:41.430Z,101404.41
2022-08-26T05:01:48.663Z,101411.56
2022-08-26T05:06:51.943Z,101407.66
2022-08-26T05:11:54.086Z,101411.00
2022-08-26T05:16:55.894Z,101417.84
2022-08-26T05:21:57.870Z,101425.53
2022-08-26T05:26:59.454Z,101422.25
2022-08-26T05:32:01.662Z,101422.53
2022-08-26T05:37:05.442Z,101417.56
2022-08-26T05:42:08.271Z,101422.25
2022-08-26T05:47:10.878Z,101422.13
2022-08-26T05:52:12.637Z,101415.44
2022-08-26T05:57:14.334Z,101417.47
2022-08-26T06:02:15.871Z,101418.06
2022-08-26T06:07:40.287Z,101412.97
2022-08-26T06:12:41.873Z,101411.69
2022-08-26T06:17:45.677Z,101401.50
2022-08-26T06:23:05.639Z,101407.06
2022-08-26T06:28:08.050Z,101400.72
2022-08-26T06:33:09.736Z,101413.44
2022-08-26T06:38:11.970Z,101401.59
2022-08-26T06:43:14.764Z,101409.75
2022-08-26T06:48:20.247Z,101416.97
2022-08-26T06:53:22.921Z,101420.28
2022-08-26T06:58:24.505Z,101415.63
2022-08-26T07:03:26.286Z,101412.38
2022-08-26T07:08:27.853Z,101416.34
2022-08-26T07:13:30.535Z,101419.91
2022-08-26T07:18:34.389Z,101421.75
2022-08-26T07:23:36.395Z,101419.91
2022-08-26T07:28:39.348Z,101415.78
2022-08-26T07:33:41.625Z,101435.41
2022-08-26T07:38:44.506Z,101430.53
2022-08-26T07:43:46.221Z,101437.56
2022-08-26T07:48:49.383Z,101423.19
2022-08-26T07:53:52.690Z,101425.94
2022-08-26T07:58:54.437Z,101431.28
2022-08-26T08:03:56.581Z,101426.56
2022-08-26T08:08:58.173Z,101429.50
2022-08-26T08:14:00.992Z,101433.25
2022-08-26T08:19:03.144Z,101428.56
2022-08-26T08:24:05.609Z,101422.63
2022-08-26T08:29:08.794Z,101416.38
2022-08-26T08:34:10.395Z,101418.09
2022-08-26T08:39:12.348Z,101430.16
2022-08-26T08:44:20.422Z,101420.44
2022-08-26T08:49:23.281Z,101419.78
2022-08-26T08:54:26.808Z,101421.72
2022-08-26T08:59:32.365Z,101425.25
2022-08-26T09:04:54.076Z,101419.91
2022-08-26T09:10:01.876Z,101403.22
2022-08-26T09:15:16.507Z,101417.34
2022-08-26T09:20:36.758Z,101418.06
2022-08-26T09:25:50.914Z,101422.69
2022-08-26T09:31:29.212Z,101412.13
2022-08-26T09:36:41.494Z,101416.84
2022-08-26T09:41:43.520Z,101414.66
2022-08-26T09:46:55.526Z,101417.03
2022-08-26T09:52:21.786Z,101414.44
2022-08-26T09:57:29.025Z,101415.50
2022-08-26T10:02:33.201Z,101421.56
2022-08-26T10:07:46.874Z,101417.91
2022-08-26T10:12:58.276Z,101412.06
2022-08-26T10:18:52.559Z,101401.69
2022-08-26T10:23:59.374Z,101401.13
2022-08-26T10:29:10.393Z,101393.50
2022-08-26T10:34:14.170Z,101394.94
2022-08-26T10:39:25.369Z,101394.06
2022-08-26T10:44:34.412Z,101391.72
2022-08-26T10:49:37.457Z,101391.16
2022-08-26T10:55:01.319Z,101384.66
2022-08-26T11:00:34.691Z,101380.53
2022-08-26T11:05:36.243Z,101383.38
2022-08-26T11:10:58.930Z,101381.28
2022-08-26T11:16:01.295Z,101385.78
2022-08-26T11:21:02.985Z,101375.19
2022-08-26T11:26:11.050Z,101384.22
2022-08-26T11:31:38.527Z,101379.19
2022-08-26T11:36:43.491Z,101381.31
2022-08-26T11:41:47.753Z,101368.94
2022-08-26T11:47:00.701Z,101381.88
2022-08-26T11:52:21.091Z,101384.13
2022-08-26T11:57:26.439Z,101373.78
2022-08-26T12:02:28.625Z,101361.88
2022-08-26T12:07:30.453Z,101342.09
2022-08-26T12:12:36.146Z,101317.38
2022-08-26T12:17:39.475Z,101316.03
2022-08-26T12:22:43.450Z,101312.22
2022-08-26T12:27:53.653Z,101306.59
2022-08-26T12:33:21.857Z,101301.84
2022-08-26T12:38:26.859Z,101308.31
2022-08-26T12:43:43.951Z,101314.25
2022-08-26T12:48:49.022Z,101305.00
2022-08-26T12:53:50.806Z,101319.56
2022-08-26T12:59:11.152Z,101323.97
2022-08-26T13:04:33.371Z,101315.91
2022-08-26T13:09:36.256Z,101307.63
2022-08-26T13:14:37.660Z,101299.88
2022-08-26T13:19:40.277Z,101301.03
2022-08-26T13:24:43.920Z,101292.09
2022-08-26T13:29:45.422Z,101281.28
2022-08-26T13:34:51.406Z,101286.91
2022-08-26T13:39:54.381Z,101283.66
2022-08-26T13:44:58.073Z,101275.34
2022-08-26T13:49:59.767Z,101286.16
2022-08-26T13:55:01.405Z,101280.28
2022-08-26T14:00:05.260Z,101271.63
2022-08-26T14:05:07.286Z,101268.59
2022-08-26T14:10:09.375Z,101265.81
2022-08-26T14:15:12.026Z,101269.84
2022-08-26T14:20:20.076Z,101256.00
2022-08-26T14:25:22.442Z,101253.28
2022-08-26T14:30:24.055Z,101245.00
2022-08-26T14:35:28.726Z,101238.34
2022-08-26T14:40:31.977Z,101252.38
2022-08-26T14:50:46.739Z,101261.25
2022-08-26T14:55:48.292Z,101265.31
2022-08-26T15:00:49.815Z,101270.09
2022-08-26T15:05:51.417Z,101270.09
2022-08-26T15:10:52.907Z,101281.09
2022-08-26T15:15:54.557Z,101303.75
2022-08-26T15:20:56.054Z,101307.03
2022-08-26T15:25:57.663Z,101323.03
2022-08-26T15:31:00.390Z,101350.75
2022-08-26T15:36:04.229Z,101370.78
2022-08-26T15:41:06.938Z,101359.72
2022-08-26T15:46:11.998Z,101342.41
2022-08-26T15:51:26.190Z,101336.25
2022-08-26T15:56:30.157Z,101360.47
2022-08-26T16:01:31.967Z,101359.97
2022-08-26T16:06:35.931Z,101365.44
2022-08-26T16:11:37.850Z,101339.06
2022-08-26T16:16:40.058Z,101324.13
2022-08-26T16:21:42.214Z,101333.72
2022-08-26T16:26:45.144Z,101338.75
2022-08-26T16:31:47.596Z,101327.09
2022-08-26T16:36:49.106Z,101318.97
2022-08-26T16:41:50.679Z,101307.03
2022-08-26T16:46:58.462Z,101292.59
2022-08-26T16:52:00.382Z,101300.16
2022-08-26T16:57:02.575Z,101291.34
2022-08-26T17:02:04.883Z,101283.03
2022-08-26T17:07:06.592Z,101284.53
2022-08-26T17:12:09.341Z,101289.00
2022-08-26T17:17:10.824Z,101294.06
2022-08-26T17:22:13.469Z,101282.19
2022-08-26T17:27:15.213Z,101268.03
2022-08-26T17:32:16.744Z,101282.19
2022-08-26T17:37:18.413Z,101275.56
2022-08-26T17:42:19.990Z,101280.50
2022-08-26T17:47:21.514Z,101277.53
2022-08-26T17:52:23.028Z,101284.19
2022-08-26T17:57:25.235Z,101305.72
2022-08-26T18:02:34.078Z,101305.19
2022-08-26T18:07:43.624Z,101318.66
2022-08-26T18:12:46.558Z,101327.78
2022-08-26T18:17:48.130Z,101337.63
2022-08-26T18:22:49.826Z,101333.56
2022-08-26T18:27:51.430Z,101325.06
2022-08-26T18:32:53.010Z,101325.91
2022-08-26T18:37:55.969Z,101328.19
2022-08-26T18:42:57.461Z,101336.75
2022-08-26T18:47:58.984Z,101335.91
2022-08-26T18:53:02.326Z,101329.47
2022-08-26T18:58:03.885Z,101333.03
2022-08-26T19:03:05.477Z,101326.97
2022-08-26T19:08:17.384Z,101339.97
2022-08-26T19:13:19.281Z,101342.06
2022-08-26T19:18:22.275Z,101334.41
2022-08-26T19:23:32.661Z,101330.28
2022-08-26T19:28:35.302Z,101331.34
2022-08-26T19:33:41.903Z,101338.72
2022-08-26T19:38:45.226Z,101342.16
2022-08-26T19:43:47.116Z,101337.56
2022-08-26T19:48:54.037Z,101336.16
2022-08-26T19:53:59.790Z,101332.78
2022-08-26T19:59:01.659Z,101344.81
2022-08-26T20:04:04.093Z,101343.56
2022-08-26T20:09:05.598Z,101337.50
2022-08-26T20:14:07.094Z,101344.59
2022-08-26T20:19:27.312Z,101361.31
2022-08-26T20:24:29.579Z,101350.88
2022-08-26T20:29:31.292Z,101346.03
2022-08-26T20:34:34.056Z,101349.72
2022-08-26T20:39:35.917Z,101357.03
2022-08-26T20:44:37.658Z,101355.41
2022-08-26T20:49:46.741Z,101351.72
2022-08-26T20:54:53.781Z,101354.63
2022-08-26T20:59:55.298Z,101355.97
2022-08-26T21:04:57.804Z,101363.09
2022-08-26T21:09:59.616Z,101362.22
2022-08-26T21:15:01.779Z,101360.91
2022-08-26T21:20:04.176Z,101363.44
2022-08-26T21:25:06.250Z,101362.94
2022-08-26T21:30:08.505Z,101373.78
2022-08-26T21:35:10.271Z,101376.22
2022-08-26T21:40:12.315Z,101379.91
2022-08-26T21:45:13.843Z,101378.50
2022-08-26T21:50:15.408Z,101373.72
2022-08-26T21:55:16.997Z,101373.44
2022-08-26T22:00:19.444Z,101376.03
2022-08-26T22:05:20.973Z,101374.56
2022-08-26T22:10:22.514Z,101374.66
2022-08-26T22:15:27.333Z,101380.53
2022-08-26T22:20:30.991Z,101384.25
2022-08-26T22:25:32.619Z,101377.09
2022-08-26T22:30:35.305Z,101380.09
2022-08-26T22:35:41.615Z,101380.09
2022-08-26T22:40:50.347Z,101374.84
2022-08-26T22:45:53.157Z,101364.06
2022-08-26T22:51:00.178Z,101362.38
2022-08-26T22:56:02.100Z,101358.88
2022-08-26T23:01:05.667Z,101359.41
2022-08-26T23:06:11.745Z,101349.72
2022-08-26T23:11:14.929Z,101333.06
2022-08-26T23:16:16.615Z,101348.88
2022-08-26T23:21:18.906Z,101347.19
2022-08-26T23:26:20.414Z,101345.22
2022-08-26T23:31:21.978Z,101343.94
2022-08-26T23:36:23.783Z,101352.41
2022-08-26T23:41:25.413Z,101348.16
2022-08-26T23:46:26.980Z,101357.38
2022-08-26T23:51:46.910Z,101352.25
2022-08-26T23:56:50.429Z,101347.22
